createdAt,value
2023-04-15T00:01:01.432Z,6.80
2023-04-15T00:03:29.839Z,7.35
2023-04-15T00:05:58.050Z,6.80
2023-04-15T00:08:25.028Z,6.47
2023-04-15T00:10:51.921Z,6.65
2023-04-15T00:13:18.964Z,7.10
2023-04-15T00:15:45.774Z,6.97
2023-04-15T00:18:12.751Z,6.72
2023-04-15T00:20:40.130Z,7.00
2023-04-15T00:23:07.671Z,7.22
2023-04-15T00:25:34.483Z,7.40
2023-04-15T00:28:01.731Z,6.72
2023-04-15T00:30:28.573Z,6.85
2023-04-15T00:32:55.535Z,7.47
2023-04-15T00:35:24.067Z,6.47
2023-04-15T00:37:51.551Z,7.05
2023-04-15T00:40:19.759Z,7.40
2023-04-15T00:42:46.666Z,7.53
2023-04-15T00:45:14.081Z,7.55
2023-04-15T00:47:43.195Z,7.05
2023-04-15T00:50:10.747Z,7.40
2023-04-15T00:52:38.375Z,7.30
2023-04-15T00:55:05.829Z,7.32
2023-04-15T00:57:33.168Z,7.00
2023-04-15T01:00:01.201Z,6.95
2023-04-15T01:02:29.077Z,7.30
2023-04-15T01:04:56.791Z,7.35
2023-04-15T01:07:23.914Z,6.88
2023-04-15T01:09:53.824Z,7.70
2023-04-15T01:12:21.848Z,8.00
2023-04-15T01:14:48.874Z,7.20
2023-04-15T01:17:16.059Z,7.20
2023-04-15T01:19:43.433Z,7.80
2023-04-15T01:22:10.772Z,9.30
2023-04-15T01:24:38.694Z,8.25
2023-04-15T01:27:05.769Z,7.90
2023-04-15T01:29:33.422Z,7.70
2023-04-15T01:32:00.440Z,8.48
2023-04-15T01:34:46.145Z,7.90
2023-04-15T01:37:32.526Z,7.75
2023-04-15T01:39:59.758Z,7.63
2023-04-15T01:42:27.929Z,7.47
2023-04-15T01:44:55.979Z,7.28
2023-04-15T01:47:23.293Z,7.53
2023-04-15T01:49:50.420Z,8.05
2023-04-15T01:52:17.610Z,7.40
2023-04-15T01:54:44.565Z,7.30
2023-04-15T01:57:12.463Z,7.25
2023-04-15T01:59:39.712Z,7.15
2023-04-15T02:02:06.911Z,7.68
2023-04-15T02:04:34.255Z,7.63
2023-04-15T02:07:01.137Z,7.90
2023-04-15T02:09:27.997Z,8.05
2023-04-15T02:11:54.760Z,7.85
2023-04-15T02:14:21.534Z,8.02
2023-04-15T02:16:48.640Z,7.85
2023-04-15T02:19:16.303Z,8.07
2023-04-15T02:21:43.014Z,8.60
2023-04-15T02:24:09.857Z,8.13
2023-04-15T02:26:36.611Z,8.43
2023-04-15T02:29:03.770Z,8.95
2023-04-15T02:31:30.771Z,8.68
2023-04-15T02:34:00.027Z,8.60
2023-04-15T02:36:27.258Z,8.30
2023-04-15T02:38:54.068Z,8.85
2023-04-15T02:41:22.957Z,8.75
2023-04-15T02:43:49.900Z,8.63
2023-04-15T02:46:17.713Z,7.97
2023-04-15T02:48:44.898Z,9.25
2023-04-15T02:51:22.801Z,7.80
2023-04-15T02:53:50.096Z,7.53
2023-04-15T02:56:17.559Z,8.73
2023-04-15T02:58:45.124Z,8.70
2023-04-15T03:01:12.157Z,8.80
2023-04-15T03:03:41.885Z,9.10
2023-04-15T03:06:09.173Z,9.13
2023-04-15T03:08:37.055Z,9.25
2023-04-15T03:11:04.527Z,9.55
2023-04-15T03:13:32.654Z,8.82
2023-04-15T03:16:05.784Z,9.57
2023-04-15T03:18:33.011Z,8.65
2023-04-15T03:21:02.916Z,8.73
2023-04-15T03:23:32.410Z,8.40
2023-04-15T03:26:02.055Z,7.63
2023-04-15T03:28:30.538Z,8.10
2023-04-15T03:30:59.049Z,8.35
2023-04-15T03:33:26.090Z,8.07
2023-04-15T03:35:53.316Z,7.88
2023-04-15T03:38:20.037Z,8.52
2023-04-15T03:40:47.105Z,8.68
2023-04-15T03:43:13.841Z,8.48
2023-04-15T03:45:40.659Z,8.25
2023-04-15T03:48:17.228Z,7.85
2023-04-15T03:50:45.140Z,8.57
2023-04-15T03:53:11.995Z,8.15
2023-04-15T03:55:38.760Z,8.60
2023-04-15T03:58:05.608Z,8.77
2023-04-15T04:00:32.517Z,9.50
2023-04-15T04:02:59.937Z,9.05
2023-04-15T04:05:27.027Z,9.02
2023-04-15T04:07:53.977Z,8.15
2023-04-15T04:10:20.818Z,7.90
2023-04-15T04:12:47.508Z,8.85
2023-04-15T04:15:14.201Z,8.32
2023-04-15T04:17:41.390Z,8.40
2023-04-15T04:20:08.577Z,9.18
2023-04-15T04:22:39.943Z,8.73
2023-04-15T04:25:08.723Z,9.27
2023-04-15T04:27:35.684Z,8.65
2023-04-15T04:30:02.496Z,8.30
2023-04-15T04:32:29.347Z,10.18
2023-04-15T04:34:56.531Z,11.75
2023-04-15T04:37:23.690Z,10.75
2023-04-15T04:39:50.733Z,10.85
2023-04-15T04:42:17.671Z,10.23
2023-04-15T04:44:44.538Z,10.10
2023-04-15T04:47:11.560Z,10.20
2023-04-15T04:49:38.556Z,10.27
2023-04-15T04:52:05.358Z,9.43
2023-04-15T04:54:32.076Z,9.35
2023-04-15T04:56:59.044Z,8.88
2023-04-15T04:59:26.530Z,9.68
2023-04-15T05:01:53.359Z,8.73
2023-04-15T05:04:20.159Z,8.95
2023-04-15T05:06:46.854Z,7.93
2023-04-15T05:09:13.656Z,9.40
2023-04-15T05:11:40.491Z,7.95
2023-04-15T05:14:07.623Z,8.13
2023-04-15T05:16:34.328Z,8.80
2023-04-15T05:19:01.209Z,9.13
2023-04-15T05:21:28.316Z,8.80
2023-04-15T05:23:55.054Z,7.43
2023-04-15T05:26:22.259Z,7.18
2023-04-15T05:28:55.132Z,6.88
2023-04-15T05:31:22.150Z,5.72
2023-04-15T05:33:49.060Z,6.30
2023-04-15T05:36:15.796Z,6.13
2023-04-15T05:38:42.677Z,5.90
2023-04-15T05:41:09.643Z,4.55
2023-04-15T05:43:36.661Z,4.75
2023-04-15T05:46:03.771Z,5.25
2023-04-15T05:48:31.268Z,5.15
2023-04-15T05:50:58.508Z,5.32
2023-04-15T05:53:25.423Z,5.07
2023-04-15T05:55:52.230Z,5.70
2023-04-15T05:58:19.057Z,5.78
2023-04-15T06:00:46.349Z,5.80
2023-04-15T06:03:17.098Z,5.35
2023-04-15T06:05:45.083Z,6.68
2023-04-15T06:08:12.566Z,6.75
2023-04-15T06:10:40.748Z,6.55
2023-04-15T06:13:07.956Z,7.32
2023-04-15T06:15:34.720Z,6.88
2023-04-15T06:18:01.733Z,6.80
2023-04-15T06:20:29.670Z,6.57
2023-04-15T06:22:57.708Z,7.22
2023-04-15T06:25:24.474Z,7.30
2023-04-15T06:27:51.329Z,7.78
2023-04-15T06:30:18.217Z,7.00
2023-04-15T06:32:45.107Z,6.97
2023-04-15T06:35:11.873Z,6.78
2023-04-15T06:37:38.626Z,7.03
2023-04-15T06:40:05.796Z,7.18
2023-04-15T06:42:32.798Z,7.00
2023-04-15T06:44:59.616Z,7.43
2023-04-15T06:47:26.837Z,6.47
2023-04-15T06:49:53.868Z,6.60
2023-04-15T06:52:20.650Z,6.38
2023-04-15T06:54:47.635Z,6.70
2023-04-15T06:57:14.943Z,6.10
2023-04-15T06:59:43.169Z,7.07
2023-04-15T07:02:12.853Z,6.45
2023-04-15T07:04:41.495Z,5.60
2023-04-15T07:07:08.456Z,6.30
2023-04-15T07:09:35.749Z,6.03
2023-04-15T07:12:17.586Z,5.38
2023-04-15T07:14:47.803Z,6.03
2023-04-15T07:17:14.969Z,6.82
2023-04-15T07:19:42.054Z,6.78
2023-04-15T07:22:09.203Z,7.13
2023-04-15T07:24:36.405Z,6.65
2023-04-15T07:27:04.267Z,5.75
2023-04-15T07:29:31.687Z,5.88
2023-04-15T07:32:04.488Z,5.95
2023-04-15T07:34:33.424Z,5.97
2023-04-15T07:37:05.736Z,5.68
2023-04-15T07:39:42.235Z,5.38
2023-04-15T07:42:14.991Z,5.68
2023-04-15T07:44:42.068Z,5.57
2023-04-15T07:49:47.373Z,5.03
2023-04-15T07:52:17.981Z,6.00
2023-04-15T07:54:50.310Z,4.72
2023-04-15T07:57:25.653Z,4.75
2023-04-15T07:59:59.118Z,4.40
2023-04-15T08:02:27.104Z,4.43
2023-04-15T08:04:56.912Z,4.80
2023-04-15T08:07:23.781Z,5.03
2023-04-15T08:09:54.897Z,4.40
2023-04-15T08:12:31.875Z,4.30
2023-04-15T08:15:08.322Z,4.88
2023-04-15T08:17:42.264Z,5.15
2023-04-15T08:20:20.271Z,4.90
2023-04-15T08:23:16.437Z,4.78
2023-04-15T08:25:46.803Z,5.28
2023-04-15T08:28:19.575Z,4.93
2023-04-15T08:30:51.816Z,5.75
2023-04-15T08:33:18.647Z,4.90
2023-04-15T08:35:51.063Z,4.20
2023-04-15T08:38:20.129Z,4.60
2023-04-15T08:40:53.857Z,5.32
2023-04-15T08:43:33.188Z,4.70
2023-04-15T08:46:10.626Z,4.47
2023-04-15T08:48:38.907Z,5.32
2023-04-15T08:51:14.171Z,4.80
2023-04-15T08:53:47.023Z,4.55
2023-04-15T08:56:16.351Z,4.30
2023-04-15T08:58:45.157Z,3.95
2023-04-15T09:01:21.386Z,4.60
2023-04-15T09:03:55.535Z,4.80
2023-04-15T09:06:26.531Z,4.50
2023-04-15T09:09:01.629Z,4.70
2023-04-15T09:11:31.541Z,4.55
2023-04-15T09:14:15.544Z,3.50
2023-04-15T09:17:05.576Z,3.53
2023-04-15T09:19:39.041Z,3.30
2023-04-15T09:22:06.559Z,3.10
2023-04-15T09:24:46.255Z,3.50
2023-04-15T09:27:19.846Z,2.92
2023-04-15T09:29:52.450Z,3.47
2023-04-15T09:32:20.335Z,2.80
2023-04-15T09:34:56.364Z,2.67
2023-04-15T09:37:49.446Z,3.75
2023-04-15T09:40:42.006Z,4.28
2023-04-15T09:43:16.355Z,4.25
2023-04-15T09:45:56.747Z,4.20
2023-04-15T09:48:30.198Z,4.20
2023-04-15T09:51:01.075Z,3.80
2023-04-15T09:53:29.819Z,4.25
2023-04-15T09:56:04.419Z,4.57
2023-04-15T09:58:36.428Z,4.30
2023-04-15T10:01:04.452Z,4.25
2023-04-15T10:03:37.715Z,4.65
2023-04-15T10:06:10.469Z,4.50
2023-04-15T10:08:42.145Z,4.32
2023-04-15T10:11:12.673Z,4.10
2023-04-15T10:13:48.543Z,4.60
2023-04-15T10:16:18.801Z,4.70
2023-04-15T10:21:30.887Z,4.38
2023-04-15T10:23:59.261Z,4.53
2023-04-15T10:26:28.624Z,5.38
2023-04-15T10:29:00.368Z,4.85
2023-04-15T10:31:31.251Z,5.20
2023-04-15T10:33:59.196Z,4.95
2023-04-15T10:36:26.714Z,4.70
2023-04-15T10:38:53.670Z,6.43
2023-04-15T10:41:21.166Z,5.07
2023-04-15T10:43:53.570Z,4.50
2023-04-15T10:51:00.789Z,4.35
2023-04-15T10:53:40.107Z,5.20
2023-04-15T10:56:07.695Z,5.15
2023-04-15T10:58:44.096Z,5.05
2023-04-15T11:01:11.233Z,5.07
2023-04-15T11:03:39.356Z,4.57
2023-04-15T11:06:07.243Z,5.28
2023-04-15T11:08:55.088Z,5.00
2023-04-15T11:11:23.037Z,5.28
2023-04-15T11:13:51.772Z,4.93
2023-04-15T11:16:23.047Z,5.22
2023-04-15T11:18:54.693Z,5.22
2023-04-15T11:21:25.051Z,5.50
2023-04-15T11:23:55.469Z,4.95
2023-04-15T11:27:11.745Z,4.55
2023-04-15T11:30:12.381Z,11.02
2023-04-15T11:32:53.443Z,4.75
2023-04-15T11:35:20.785Z,4.80
2023-04-15T11:37:49.480Z,6.40
2023-04-15T11:40:27.632Z,5.32
2023-04-15T11:43:16.059Z,5.13
2023-04-15T11:47:09.540Z,5.78
2023-04-15T11:49:41.772Z,6.35
2023-04-15T11:52:22.555Z,6.35
2023-04-15T11:54:50.992Z,5.00
2023-04-15T11:57:32.686Z,4.90
2023-04-15T12:00:02.065Z,5.35
2023-04-15T12:02:33.493Z,5.65
2023-04-15T12:05:06.076Z,5.40
2023-04-15T12:07:33.775Z,6.03
2023-04-15T12:10:01.077Z,6.65
2023-04-15T12:12:33.121Z,6.55
2023-04-15T12:15:00.444Z,5.72
2023-04-15T12:17:31.802Z,6.05
2023-04-15T12:20:25.854Z,6.45
2023-04-15T12:23:27.687Z,5.95
2023-04-15T12:25:54.980Z,5.80
2023-04-15T12:28:40.503Z,5.60
2023-04-15T12:31:12.917Z,5.85
2023-04-15T12:33:53.347Z,5.55
2023-04-15T12:36:20.952Z,5.72
2023-04-15T12:38:48.012Z,6.45
2023-04-15T12:41:15.303Z,6.90
2023-04-15T12:43:44.707Z,6.95
2023-04-15T12:46:11.819Z,6.80
2023-04-15T12:49:25.670Z,7.70
2023-04-15T12:51:53.435Z,7.72
2023-04-15T12:54:20.893Z,7.25
2023-04-15T12:56:49.047Z,7.20
2023-04-15T12:59:17.937Z,7.95
2023-04-15T13:01:45.560Z,7.47
2023-04-15T13:04:12.905Z,7.15
2023-04-15T13:06:40.278Z,7.05
2023-04-15T13:09:07.817Z,7.03
2023-04-15T13:11:35.146Z,6.47
2023-04-15T13:14:03.643Z,6.50
2023-04-15T13:16:32.077Z,7.05
2023-04-15T13:18:59.230Z,7.38
2023-04-15T13:21:27.520Z,7.05
2023-04-15T13:23:55.016Z,6.43
2023-04-15T13:26:22.300Z,6.05
2023-04-15T13:28:49.457Z,6.85
2023-04-15T13:31:16.634Z,7.15
2023-04-15T13:33:43.700Z,6.00
2023-04-15T13:36:10.595Z,5.72
2023-04-15T13:38:37.764Z,6.88
2023-04-15T13:41:04.541Z,7.18
2023-04-15T13:43:34.400Z,7.70
2023-04-15T13:46:02.128Z,7.72
2023-04-15T13:48:29.370Z,7.95
2023-04-15T13:50:56.176Z,8.00
2023-04-15T13:53:33.949Z,7.57
2023-04-15T13:56:10.056Z,7.97
2023-04-15T13:58:37.809Z,7.90
2023-04-15T14:01:07.070Z,7.18
2023-04-15T14:03:35.413Z,6.30
2023-04-15T14:06:02.591Z,7.10
2023-04-15T14:08:30.315Z,6.93
2023-04-15T14:10:58.776Z,5.82
2023-04-15T14:13:25.929Z,6.20
2023-04-15T14:15:52.993Z,6.07
2023-04-15T14:18:20.123Z,6.35
2023-04-15T14:20:47.357Z,6.20
2023-04-15T14:23:14.271Z,7.38
2023-04-15T14:25:41.147Z,8.35
2023-04-15T14:28:08.286Z,7.88
2023-04-15T14:30:35.498Z,9.10
2023-04-15T14:33:03.518Z,9.07
2023-04-15T14:35:31.179Z,9.40
2023-04-15T14:37:58.263Z,9.57
2023-04-15T14:40:30.967Z,9.00
2023-04-15T14:42:57.981Z,8.35
2023-04-15T14:45:24.930Z,8.88
2023-04-15T14:47:53.243Z,8.27
2023-04-15T14:50:20.395Z,6.93
2023-04-15T14:52:47.397Z,5.95
2023-04-15T14:55:14.457Z,7.82
2023-04-15T14:57:42.234Z,8.25
2023-04-15T15:00:10.693Z,7.43
2023-04-15T15:02:40.136Z,8.52
2023-04-15T15:05:08.321Z,8.20
2023-04-15T15:07:37.184Z,8.77
2023-04-15T15:10:05.402Z,9.23
2023-04-15T15:12:33.339Z,8.05
2023-04-15T15:15:01.596Z,8.50
2023-04-15T15:17:30.067Z,8.55
2023-04-15T15:20:00.852Z,8.75
2023-04-15T15:22:35.297Z,8.52
2023-04-15T15:25:02.480Z,8.75
2023-04-15T15:27:32.584Z,8.18
2023-04-15T15:29:59.508Z,8.95
2023-04-15T15:32:26.910Z,9.32
2023-04-15T15:34:54.097Z,8.65
2023-04-15T15:37:21.333Z,9.15
2023-04-15T15:39:49.089Z,9.10
2023-04-15T15:42:27.139Z,8.65
2023-04-15T15:44:57.196Z,9.30
2023-04-15T15:47:27.544Z,9.15
2023-04-15T15:49:57.509Z,9.95
2023-04-15T15:52:24.654Z,9.68
2023-04-15T15:54:51.450Z,10.88
2023-04-15T15:57:18.264Z,10.35
2023-04-15T15:59:45.239Z,9.18
2023-04-15T16:02:14.206Z,9.60
2023-04-15T16:04:43.286Z,10.73
2023-04-15T16:07:11.758Z,9.32
2023-04-15T16:09:40.550Z,9.50
2023-04-15T16:12:07.400Z,9.02
2023-04-15T16:14:34.335Z,8.73
2023-04-15T16:17:01.242Z,9.23
2023-04-15T16:19:28.204Z,9.13
2023-04-15T16:21:55.099Z,9.57
2023-04-15T16:24:22.136Z,8.77
2023-04-15T16:26:49.047Z,8.60
2023-04-15T16:29:16.181Z,8.73
2023-04-15T16:31:43.101Z,7.93
2023-04-15T16:34:10.385Z,8.30
2023-04-15T16:36:40.413Z,8.55
2023-04-15T16:39:07.949Z,8.18
2023-04-15T16:41:35.420Z,8.35
2023-04-15T16:44:03.496Z,7.70
2023-04-15T16:46:31.150Z,8.25
2023-04-15T16:48:58.015Z,9.65
2023-04-15T16:51:24.927Z,9.90
2023-04-15T16:53:51.850Z,10.63
2023-04-15T16:56:19.169Z,10.95
2023-04-15T16:58:48.511Z,11.82
2023-04-15T17:01:15.715Z,11.82
2023-04-15T17:03:48.578Z,11.90
2023-04-15T17:06:16.636Z,11.55
2023-04-15T17:08:43.929Z,12.43
2023-04-15T17:11:11.238Z,12.70
2023-04-15T17:13:38.877Z,12.35
2023-04-15T17:16:07.882Z,13.40
2023-04-15T17:18:42.555Z,14.43
2023-04-15T17:21:17.531Z,13.48
2023-04-15T17:23:47.164Z,13.95
2023-04-15T17:26:15.318Z,13.13
2023-04-15T17:28:42.473Z,13.93
2023-04-15T17:31:13.959Z,15.35
2023-04-15T17:34:08.906Z,14.35
2023-04-15T17:36:37.222Z,10.40
2023-04-15T17:39:04.703Z,7.32
2023-04-15T17:41:51.802Z,6.68
2023-04-15T17:44:19.448Z,5.78
2023-04-15T17:47:08.638Z,6.15
2023-04-15T17:49:55.508Z,5.57
2023-04-15T17:52:43.195Z,4.82
2023-04-15T17:55:31.391Z,3.85
2023-04-15T17:58:18.188Z,4.60
2023-04-15T18:01:04.986Z,5.25
2023-04-15T18:03:51.975Z,5.30
2023-04-15T18:06:39.006Z,5.38
2023-04-15T18:09:25.894Z,5.35
2023-04-15T18:12:12.633Z,5.00
2023-04-15T18:14:59.683Z,4.88
2023-04-15T18:17:47.629Z,4.30
2023-04-15T18:20:15.754Z,4.05
2023-04-15T18:22:45.038Z,3.95
2023-04-15T18:25:11.796Z,3.60
2023-04-15T18:27:41.516Z,3.63
2023-04-15T18:30:09.239Z,4.07
2023-04-15T18:32:36.633Z,4.05
2023-04-15T18:35:04.923Z,3.67
2023-04-15T18:37:32.243Z,3.13
2023-04-15T18:39:59.711Z,3.20
2023-04-15T18:42:26.953Z,3.13
2023-04-15T18:44:54.007Z,2.90
2023-04-15T18:47:21.416Z,3.00
2023-04-15T18:49:48.576Z,2.60
2023-04-15T18:52:15.564Z,3.05
2023-04-15T18:54:44.558Z,3.15
2023-04-15T18:57:24.956Z,2.35
2023-04-15T18:59:59.661Z,2.00
2023-04-15T19:02:32.085Z,2.30
2023-04-15T19:04:59.499Z,2.27
2023-04-15T19:07:50.738Z,2.72
2023-04-15T19:10:18.029Z,2.35
2023-04-15T19:12:45.324Z,2.40
2023-04-15T19:15:12.328Z,2.40
2023-04-15T19:17:39.772Z,2.85
2023-04-15T19:20:10.441Z,2.63
2023-04-15T19:22:37.897Z,2.75
2023-04-15T19:25:05.746Z,2.63
2023-04-15T19:27:32.850Z,2.60
2023-04-15T19:30:00.341Z,2.63
2023-04-15T19:32:30.992Z,2.78
2023-04-15T19:34:58.496Z,2.63
2023-04-15T19:37:25.694Z,3.30
2023-04-15T19:39:54.004Z,2.83
2023-04-15T19:42:21.168Z,2.65
2023-04-15T19:44:48.118Z,2.60
2023-04-15T19:47:15.124Z,2.85
2023-04-15T19:49:45.548Z,2.35
2023-04-15T19:52:12.691Z,2.58
2023-04-15T19:54:40.190Z,2.95
2023-04-15T19:57:07.604Z,2.58
2023-04-15T19:59:37.774Z,2.40
2023-04-15T20:02:04.877Z,2.83
2023-04-15T20:04:34.426Z,3.80
2023-04-15T20:07:19.255Z,2.85
2023-04-15T20:09:49.132Z,2.92
2023-04-15T20:12:51.757Z,3.25
2023-04-15T20:15:04.771Z,3.28
2023-04-15T20:17:38.112Z,3.03
2023-04-15T20:20:06.325Z,3.35
2023-04-15T20:22:34.485Z,3.95
2023-04-15T20:25:03.064Z,3.20
2023-04-15T20:27:47.408Z,3.33
2023-04-15T20:30:14.915Z,4.22
2023-04-15T20:32:41.866Z,3.55
2023-04-15T20:35:08.894Z,3.80
2023-04-15T20:37:37.059Z,4.07
2023-04-15T20:40:04.228Z,3.83
2023-04-15T20:42:36.982Z,4.30
2023-04-15T20:45:04.297Z,4.33
2023-04-15T20:47:31.336Z,3.83
2023-04-15T20:49:58.239Z,3.97
2023-04-15T20:52:25.123Z,4.22
2023-04-15T20:54:52.140Z,4.40
2023-04-15T20:57:20.294Z,4.22
2023-04-15T20:59:47.311Z,5.00
2023-04-15T21:02:14.693Z,3.60
2023-04-15T21:04:42.085Z,4.43
2023-04-15T21:07:09.592Z,3.72
2023-04-15T21:09:38.448Z,3.75
2023-04-15T21:12:05.671Z,3.22
2023-04-15T21:14:34.969Z,2.85
2023-04-15T21:17:09.186Z,2.88
2023-04-15T21:19:37.085Z,2.97
2023-04-15T21:22:04.249Z,2.80
2023-04-15T21:24:31.420Z,2.95
2023-04-15T21:26:58.522Z,2.83
2023-04-15T21:29:25.765Z,2.60
2023-04-15T21:31:52.825Z,2.80
2023-04-15T21:34:20.007Z,2.20
2023-04-15T21:36:47.073Z,2.90
2023-04-15T21:39:14.185Z,2.35
2023-04-15T21:41:41.275Z,2.40
2023-04-15T21:44:08.335Z,2.25
2023-04-15T21:46:35.749Z,2.63
2023-04-15T21:49:03.591Z,2.22
2023-04-15T21:51:31.633Z,2.55
2023-04-15T21:53:59.604Z,2.80
2023-04-15T21:56:27.128Z,3.08
2023-04-15T21:58:55.266Z,3.15
2023-04-15T22:01:22.380Z,3.40
2023-04-15T22:03:49.936Z,2.97
2023-04-15T22:06:17.509Z,4.00
2023-04-15T22:08:54.905Z,2.83
2023-04-15T22:11:27.451Z,3.03
2023-04-15T22:13:55.179Z,2.60
2023-04-15T22:16:22.174Z,2.30
2023-04-15T22:18:49.194Z,2.83
2023-04-15T22:21:16.412Z,2.60
2023-04-15T22:23:47.643Z,2.50
2023-04-15T22:26:14.576Z,2.65
2023-04-15T22:28:41.933Z,4.43
2023-04-15T22:31:09.290Z,2.70
2023-04-15T22:33:36.550Z,4.18
2023-04-15T22:36:03.896Z,2.75
2023-04-15T22:38:30.987Z,2.20
2023-04-15T22:40:58.408Z,2.63
2023-04-15T22:43:27.423Z,3.20
2023-04-15T22:45:55.094Z,2.45
2023-04-15T22:48:22.704Z,2.28
2023-04-15T22:50:49.804Z,2.65
2023-04-15T22:53:17.810Z,5.72
2023-04-15T22:55:48.747Z,2.13
2023-04-15T22:58:17.115Z,2.83
2023-04-15T23:00:44.316Z,4.22
2023-04-15T23:03:12.135Z,1.70
2023-04-15T23:05:45.073Z,1.75
2023-04-15T23:08:11.959Z,2.08
2023-04-15T23:10:40.105Z,2.00
2023-04-15T23:13:06.969Z,2.38
2023-04-15T23:15:33.910Z,2.25
2023-04-15T23:18:02.212Z,2.83
2023-04-15T23:20:29.439Z,2.90
2023-04-15T23:22:56.876Z,3.80
2023-04-15T23:25:23.771Z,4.63
2023-04-15T23:27:50.683Z,7.05
2023-04-15T23:30:17.714Z,1.90
2023-04-15T23:32:44.679Z,2.38
2023-04-15T23:35:11.674Z,2.05
2023-04-15T23:37:38.591Z,2.00
2023-04-15T23:40:06.079Z,2.05
2023-04-15T23:42:33.170Z,2.00
2023-04-15T23:45:00.105Z,2.10
2023-04-15T23:47:27.079Z,2.58
2023-04-15T23:49:54.206Z,2.50
2023-04-15T23:52:21.112Z,2.22
2023-04-15T23:54:47.993Z,2.17
2023-04-15T23:57:14.970Z,2.58
2023-04-15T23:59:42.221Z,3.47
